PWSweather.com
Personal Weather Stations
Station Observations
BLACKWELL
Blackwell, AlfretonGB DE55

BlackwellAlfretonGB DE55

Lat: 53.12076, Lon: -1.354978

Elevation: 410

Station Type: Vantage Pro

High Low Average
Temperature 51.6°F10.9°C 40.5°F4.7°C 46.8°F8.2°C
Dew Point 45.0°F7.2°C 38.5°F3.6°C 42.8°F6.0°C
Winds 4.0 mph 6.4 kmh Calm Calm 2.0 mph WSW3.2 kmh WSW
Wind Gusts 11.0 mph17.7 kmh 1.0 mph1.6 kmh 5.0 mph8.0 kmh
Humidity 93% 74% 86%
Pressure 30.44 in1030.8 mb 30.38 in1028.8 mb -
Precipitation 0.00 in0.0 mm - -
Hour Temp Dew Point Humidity Winds Wind Gusts Pressure Precip Precip Rate Daily Precip Total
12:28 AM 47.3°F8.5°C 44.8°F7.1°C 91% 1.0 mph WSW1.6 kmh WSW 5.0 mph8.0 kmh 30.44 in1030.8 mb 0.00 in0.0 mm 0.00 in0.0 mm 0.00 in0.0 mm
01:28 AM 47.5°F8.6°C 45.0°F7.2°C 91% 1.0 mph WSW1.6 kmh WSW 5.0 mph8.0 kmh 30.44 in1030.8 mb 0.00 in0.0 mm 0.00 in0.0 mm 0.00 in0.0 mm
02:28 AM 47.3°F8.5°C 44.8°F7.1°C 91% 1.0 mph WSW1.6 kmh WSW 5.0 mph8.0 kmh 30.43 in1030.5 mb 0.00 in0.0 mm 0.00 in0.0 mm 0.00 in0.0 mm
03:28 AM 46.6°F8.1°C 44.1°F6.7°C 91% 1.0 mph SW1.6 kmh SW 4.0 mph6.4 kmh 30.43 in1030.5 mb 0.00 in0.0 mm 0.00 in0.0 mm 0.00 in0.0 mm
04:28 AM 46.4°F8.0°C 44.2°F6.8°C 92% 2.0 mph WSW3.2 kmh WSW 5.0 mph8.0 kmh 30.42 in1030.1 mb 0.00 in0.0 mm 0.00 in0.0 mm 0.00 in0.0 mm
05:28 AM 45.9°F7.7°C 44.1°F6.7°C 93% Calm Calm 2.0 mph3.2 kmh 30.42 in1030.1 mb 0.00 in0.0 mm 0.00 in0.0 mm 0.00 in0.0 mm
06:28 AM 46.0°F7.8°C 43.9°F6.6°C 92% 1.0 mph WSW1.6 kmh WSW 7.0 mph11.3 kmh 30.41 in1029.8 mb 0.00 in0.0 mm 0.00 in0.0 mm 0.00 in0.0 mm
07:28 AM 46.4°F8.0°C 43.9°F6.6°C 91% 3.0 mph WSW4.8 kmh WSW 8.0 mph12.9 kmh 30.41 in1029.8 mb 0.00 in0.0 mm 0.00 in0.0 mm 0.00 in0.0 mm
08:28 AM 46.6°F8.1°C 43.9°F6.6°C 90% 2.0 mph WSW3.2 kmh WSW 7.0 mph11.3 kmh 30.41 in1029.8 mb 0.00 in0.0 mm 0.00 in0.0 mm 0.00 in0.0 mm
09:28 AM 47.3°F8.5°C 43.9°F6.6°C 88% 2.0 mph WSW3.2 kmh WSW 9.0 mph14.5 kmh 30.40 in1029.5 mb 0.00 in0.0 mm 0.00 in0.0 mm 0.00 in0.0 mm
10:28 AM 48.2°F9.0°C 43.3°F6.3°C 83% 4.0 mph WSW6.4 kmh WSW 10.0 mph16.1 kmh 30.41 in1029.8 mb 0.00 in0.0 mm 0.00 in0.0 mm 0.00 in0.0 mm
11:28 AM 48.9°F9.4°C 43.3°F6.3°C 81% 4.0 mph WSW6.4 kmh WSW 11.0 mph17.7 kmh 30.42 in1030.1 mb 0.00 in0.0 mm 0.00 in0.0 mm 0.00 in0.0 mm
12:28 PM 50.4°F10.2°C 43.7°F6.5°C 78% 4.0 mph WSW6.4 kmh WSW 9.0 mph14.5 kmh 30.41 in1029.8 mb 0.00 in0.0 mm 0.00 in0.0 mm 0.00 in0.0 mm
01:28 PM 51.6°F10.9°C 44.2°F6.8°C 76% 3.0 mph WSW4.8 kmh WSW 8.0 mph12.9 kmh 30.40 in1029.5 mb 0.00 in0.0 mm 0.00 in0.0 mm 0.00 in0.0 mm
02:28 PM 51.4°F10.8°C 43.5°F6.4°C 74% 4.0 mph WSW6.4 kmh WSW 8.0 mph12.9 kmh 30.39 in1029.1 mb 0.00 in0.0 mm 0.00 in0.0 mm 0.00 in0.0 mm
03:28 PM 50.9°F10.5°C 44.2°F6.8°C 78% 1.0 mph WSW1.6 kmh WSW 4.0 mph6.4 kmh 30.38 in1028.8 mb 0.00 in0.0 mm 0.00 in0.0 mm 0.00 in0.0 mm
04:28 PM 49.6°F9.8°C 43.7°F6.5°C 80% 1.0 mph SW1.6 kmh SW 3.0 mph4.8 kmh 30.38 in1028.8 mb 0.00 in0.0 mm 0.00 in0.0 mm 0.00 in0.0 mm
05:45 PM 46.9°F8.3°C 41.7°F5.4°C 82% Calm Calm 2.0 mph3.2 kmh 30.39 in1029.1 mb 0.00 in0.0 mm 0.00 in0.0 mm 0.00 in0.0 mm
06:44 PM 46.2°F7.9°C 41.4°F5.2°C 83% 1.0 mph WSW1.6 kmh WSW 3.0 mph4.8 kmh 30.39 in1029.1 mb 0.00 in0.0 mm 0.00 in0.0 mm 0.00 in0.0 mm
07:44 PM 44.4°F6.9°C 40.5°F4.7°C 86% Calm Calm 2.0 mph3.2 kmh 30.39 in1029.1 mb 0.00 in0.0 mm 0.00 in0.0 mm 0.00 in0.0 mm
08:44 PM 43.3°F6.3°C 39.9°F4.4°C 88% 1.0 mph S1.6 kmh S 5.0 mph8.0 kmh 30.39 in1029.1 mb 0.00 in0.0 mm 0.00 in0.0 mm 0.00 in0.0 mm
09:44 PM 42.1°F5.6°C 39.2°F4.0°C 90% Calm Calm 1.0 mph1.6 kmh 30.40 in1029.5 mb 0.00 in0.0 mm 0.00 in0.0 mm 0.00 in0.0 mm
10:44 PM 40.8°F4.9°C 38.7°F3.7°C 92% Calm Calm 1.0 mph1.6 kmh 30.41 in1029.8 mb 0.00 in0.0 mm 0.00 in0.0 mm 0.00 in0.0 mm
11:44 PM 40.5°F4.7°C 38.5°F3.6°C 93% 1.0 mph SW1.6 kmh SW 4.0 mph6.4 kmh 30.41 in1029.8 mb 0.00 in0.0 mm 0.00 in0.0 mm 0.00 in0.0 mm